Time;durP1;ratioP1;P1;durP2;ratioP2;P2;SDS_P1;SDS_P2;PMS_P1;PMS_P2;Temp;Humidity;BMP_temperature;BMP_pressure;BME280_temperature;BME280_humidity;BME280_pressure;Samples;Min_cycle;Max_cycle;Signal;HPM_P1;HPM_P2
2023/06/07 05:25:57;;;;;;;5.55;3.60;;;20.50;99.90;;;;;;5411048;23;20660;-89
2023/06/07 05:28:24;;;;;;;4.47;3.67;;;20.50;99.90;;;;;;4990492;28;20626;-90
2023/06/07 05:30:51;;;;;;;6.22;3.83;;;20.40;99.90;;;;;;4983767;28;20199;-89
2023/06/07 05:33:18;;;;;;;6.05;3.90;;;20.40;99.90;;;;;;4980350;28;20661;-89
2023/06/07 05:35:46;;;;;;;6.20;3.33;;;20.40;99.90;;;;;;4989274;28;20246;-92
2023/06/07 05:38:13;;;;;;;4.18;3.50;;;20.50;99.90;;;;;;4995285;28;20245;-92
2023/06/07 05:40:40;;;;;;;5.57;3.13;;;20.50;99.90;;;;;;4986632;28;20621;-92
2023/06/07 05:43:08;;;;;;;4.75;3.70;;;20.60;99.90;;;;;;4993271;28;20223;-92
2023/06/07 05:45:35;;;;;;;5.32;3.72;;;20.60;99.90;;;;;;4990702;28;20207;-93
2023/06/07 05:48:02;;;;;;;5.80;3.53;;;20.60;99.90;;;;;;4993108;28;20200;-94
2023/06/07 05:50:29;;;;;;;4.80;3.47;;;20.60;99.90;;;;;;4996398;28;20462;-93
2023/06/07 05:52:57;;;;;;;9.27;3.55;;;20.70;99.90;;;;;;4996968;28;20565;-94
2023/06/07 05:55:25;;;;;;;4.20;3.53;;;20.80;99.90;;;;;;4997310;28;20199;-94
2023/06/07 05:57:52;;;;;;;7.72;3.95;;;20.90;99.90;;;;;;4991414;28;20226;-94
2023/06/07 06:00:22;;;;;;;10.60;4.07;;;21.10;99.90;;;;;;4997571;28;20202;-94
2023/06/07 06:02:49;;;;;;;5.03;3.70;;;21.20;99.90;;;;;;4997215;28;20257;-94
2023/06/07 06:05:17;;;;;;;7.85;3.80;;;21.20;99.90;;;;;;4996947;28;20269;-93
2023/06/07 06:07:44;;;;;;;5.22;3.67;;;21.40;99.90;;;;;;4996785;28;20195;-94
2023/06/07 06:10:12;;;;;;;7.13;3.85;;;21.50;99.90;;;;;;4997329;28;20245;-92
2023/06/07 06:12:39;;;;;;;4.63;3.47;;;21.60;99.90;;;;;;4996064;28;20278;-91
2023/06/07 06:15:07;;;;;;;5.65;3.58;;;21.80;99.90;;;;;;4996235;28;20203;-90
2023/06/07 06:17:35;;;;;;;5.93;3.67;;;21.90;99.90;;;;;;4996164;28;20202;-90
2023/06/07 06:20:02;;;;;;;6.95;3.60;;;22.00;99.90;;;;;;4996149;28;20254;-91
2023/06/07 06:22:29;;;;;;;5.40;3.47;;;22.10;99.90;;;;;;4995519;28;20219;-90
2023/06/07 06:24:56;;;;;;;8.23;3.90;;;22.20;99.90;;;;;;4996316;28;20708;-90
2023/06/07 06:27:23;;;;;;;4.93;3.70;;;22.30;99.90;;;;;;4995921;28;20195;-90
2023/06/07 06:29:50;;;;;;;5.07;3.88;;;22.50;99.90;;;;;;4994388;28;20253;-88
2023/06/07 06:32:17;;;;;;;17.25;4.47;;;22.70;99.90;;;;;;4994248;28;20253;-90
2023/06/07 06:34:46;;;;;;;6.88;3.45;;;22.90;99.90;;;;;;4992000;28;20262;-91
2023/06/07 06:37:13;;;;;;;6.18;3.72;;;23.10;99.90;;;;;;4979093;28;20721;-90
2023/06/07 06:39:40;;;;;;;5.93;3.65;;;23.20;99.90;;;;;;4990473;28;20190;-90
2023/06/07 06:42:07;;;;;;;3.70;3.10;;;23.30;99.90;;;;;;4993803;28;20261;-91
2023/06/07 06:44:34;;;;;;;5.05;3.28;;;23.40;99.90;;;;;;4995382;28;20254;-90
2023/06/07 06:47:01;;;;;;;4.40;3.60;;;23.40;99.90;;;;;;4995668;28;20202;-91
2023/06/07 06:49:28;;;;;;;7.85;3.67;;;23.50;99.90;;;;;;4995416;28;20269;-90
2023/06/07 06:51:56;;;;;;;4.88;3.38;;;23.60;99.90;;;;;;4995645;28;20732;-90
2023/06/07 06:54:23;;;;;;;5.30;3.65;;;23.60;99.90;;;;;;4995222;28;20203;-90
2023/06/07 06:56:51;;;;;;;4.43;3.50;;;23.70;99.90;;;;;;4995476;28;20622;-90
2023/06/07 06:59:18;;;;;;;6.03;3.65;;;23.80;99.90;;;;;;4995220;28;20206;-90
2023/06/07 07:01:47;;;;;;;8.77;3.45;;;23.90;99.90;;;;;;4994638;28;20194;-90
2023/06/07 07:04:14;;;;;;;5.80;3.45;;;23.90;99.90;;;;;;4995344;28;20191;-89
2023/06/07 07:06:41;;;;;;;6.82;3.47;;;23.90;99.90;;;;;;4994808;28;20222;-90
2023/06/07 07:09:10;;;;;;;5.22;3.67;;;24.00;99.90;;;;;;4995046;28;20735;-91
2023/06/07 07:11:37;;;;;;;4.05;3.35;;;24.10;99.10;;;;;;4994881;28;20202;-90
2023/06/07 07:14:04;;;;;;;7.15;3.60;;;24.10;96.90;;;;;;4996151;28;20195;-90
2023/06/07 07:16:32;;;;;;;5.82;3.88;;;24.20;95.70;;;;;;4992011;28;20202;-88
2023/06/07 07:18:59;;;;;;;4.28;3.88;;;24.40;97.50;;;;;;4993390;28;20199;-89
2023/06/07 07:21:28;;;;;;;6.15;3.67;;;24.60;96.30;;;;;;4992524;28;20202;-89
2023/06/07 07:23:55;;;;;;;6.90;4.03;;;24.70;95.80;;;;;;4992923;28;20314;-89
2023/06/07 07:26:23;;;;;;;5.85;3.97;;;24.80;94.50;;;;;;4994381;28;20222;-89
2023/06/07 07:28:52;;;;;;;4.80;3.58;;;24.90;91.80;;;;;;4991679;28;20196;-90
2023/06/07 07:31:19;;;;;;;5.60;3.80;;;24.90;88.50;;;;;;4993677;28;20262;-90
2023/06/07 07:33:47;;;;;;;4.85;3.55;;;24.90;80.70;;;;;;4990693;28;20634;-88
2023/06/07 07:36:15;;;;;;;6.45;3.80;;;24.90;78.20;;;;;;4991326;28;20199;-89
2023/06/07 07:38:45;;;;;;;4.80;4.00;;;24.90;77.10;;;;;;4991599;28;20195;-90
2023/06/07 07:41:13;;;;;;;5.47;3.33;;;25.00;73.90;;;;;;4991648;28;20245;-89
2023/06/07 07:43:41;;;;;;;5.53;3.35;;;25.00;71.80;;;;;;4991821;28;20286;-89
2023/06/07 07:46:08;;;;;;;4.10;3.53;;;25.00;70.40;;;;;;4992848;28;20203;-90
2023/06/07 07:48:35;;;;;;;5.05;3.35;;;25.10;64.10;;;;;;4993453;28;20218;-90
2023/06/07 07:51:03;;;;;;;4.05;3.47;;;25.10;62.60;;;;;;4993657;28;20282;-90
2023/06/07 07:53:30;;;;;;;5.63;3.38;;;25.20;61.50;;;;;;4993803;28;20191;-89
2023/06/07 07:55:57;;;;;;;5.20;3.30;;;25.30;58.60;;;;;;4993865;28;20206;-89
2023/06/07 07:58:25;;;;;;;7.03;3.55;;;25.40;56.00;;;;;;4993578;28;20196;-89
2023/06/07 08:00:53;;;;;;;4.63;3.10;;;25.60;63.90;;;;;;4990776;28;20200;-89
2023/06/07 08:03:21;;;;;;;5.47;3.30;;;25.60;48.90;;;;;;4987661;28;20218;-89
2023/06/07 08:05:48;;;;;;;7.45;3.50;;;25.70;47.00;;;;;;4992058;28;20207;-89
2023/06/07 08:08:16;;;;;;;9.45;3.00;;;25.80;44.60;;;;;;4990810;28;20203;-89
2023/06/07 08:10:43;;;;;;;6.70;3.20;;;25.90;45.90;;;;;;4981329;28;20209;-89
2023/06/07 08:13:10;;;;;;;4.22;3.13;;;25.90;40.80;;;;;;4991091;28;20195;-89
2023/06/07 08:15:37;;;;;;;5.15;3.30;;;26.00;37.20;;;;;;4990877;28;20202;-90
2023/06/07 08:18:06;;;;;;;3.30;3.00;;;26.10;35.80;;;;;;4988389;28;20645;-90
2023/06/07 08:20:33;;;;;;;4.10;3.20;;;26.20;31.40;;;;;;4986288;28;20553;-89
2023/06/07 08:23:00;;;;;;;4.00;2.90;;;26.30;30.90;;;;;;4989453;28;20269;-89
2023/06/07 08:25:27;;;;;;;5.55;3.05;;;26.50;29.70;;;;;;4991251;28;20270;-89
2023/06/07 08:27:53;;;;;;;5.97;3.17;;;26.60;29.10;;;;;;4983710;28;20199;-90
2023/06/07 08:30:20;;;;;;;6.00;3.30;;;26.80;28.10;;;;;;4987237;28;20250;-90
2023/06/07 08:32:47;;;;;;;5.68;3.30;;;26.80;25.40;;;;;;4985976;28;20195;-89
2023/06/07 08:35:16;;;;;;;4.53;2.90;;;26.70;25.60;;;;;;4987543;28;20668;-88
2023/06/07 08:37:43;;;;;;;4.30;2.83;;;26.70;22.30;;;;;;4985103;28;20245;-89
2023/06/07 08:40:11;;;;;;;5.32;3.28;;;26.60;17.70;;;;;;4993438;28;20246;-89
2023/06/07 08:42:39;;;;;;;5.22;2.80;;;26.60;18.30;;;;;;4979153;28;20682;-89
2023/06/07 08:45:07;;;;;;;7.18;2.83;;;26.70;16.40;;;;;;4979223;28;20196;-89
2023/06/07 08:47:36;;;;;;;9.02;3.58;;;26.80;18.10;;;;;;4981485;28;20233;-90
2023/06/07 08:50:04;;;;;;;4.63;2.60;;;27.00;15.30;;;;;;4990206;28;20199;-90
2023/06/07 08:52:34;;;;;;;7.32;3.00;;;27.00;13.70;;;;;;4976309;28;20218;-89
2023/06/07 08:55:05;;;;;;;6.78;2.72;;;27.00;11.70;;;;;;4992063;28;20282;-89
2023/06/07 08:57:33;;;;;;;4.50;2.58;;;26.90;8.80;;;;;;4991972;28;20203;-89
2023/06/07 09:00:02;;;;;;;3.03;2.72;;;26.90;7.70;;;;;;4990021;28;20203;-89
2023/06/07 09:02:29;;;;;;;7.63;2.80;;;27.00;6.10;;;;;;4991178;28;20350;-88
2023/06/07 09:04:56;;;;;;;6.60;2.70;;;27.00;2.60;;;;;;4990816;28;20207;-90
2023/06/07 09:07:23;;;;;;;7.05;2.92;;;27.10;1.60;;;;;;4989885;28;20290;-90
2023/06/07 09:09:52;;;;;;;6.45;2.30;;;27.20;1.00;;;;;;4986217;28;20255;-87
2023/06/07 09:12:19;;;;;;;18.40;3.03;;;27.30;1.00;;;;;;4993588;28;20199;-89
2023/06/07 09:14:51;;;;;;;4.97;2.90;;;27.30;1.00;;;;;;4992295;28;20191;-91
2023/06/07 09:17:19;;;;;;;3.08;2.30;;;27.30;1.00;;;;;;4993705;28;20246;-88
2023/06/07 09:19:47;;;;;;;4.65;2.40;;;27.30;1.00;;;;;;4998442;28;20267;-92
2023/06/07 09:22:17;;;;;;;4.00;2.53;;;27.30;1.00;;;;;;4996351;28;20202;-90
2023/06/07 09:24:44;;;;;;;5.07;2.72;;;27.40;1.00;;;;;;4998855;28;20199;-91
2023/06/07 09:27:13;;;;;;;4.57;2.70;;;27.50;1.00;;;;;;4999089;28;20568;-90
2023/06/07 09:29:42;;;;;;;5.85;2.78;;;27.60;1.00;;;;;;4999124;28;20254;-90
2023/06/07 09:32:19;;;;;;;5.97;2.75;;;27.70;1.00;;;;;;4998984;28;20213;-89
2023/06/07 09:34:47;;;;;;;4.13;2.55;;;27.90;1.00;;;;;;4983200;28;20241;-88
2023/06/07 09:37:17;;;;;;;6.38;2.33;;;28.00;1.00;;;;;;4999657;28;20233;-89
2023/06/07 09:39:47;;;;;;;7.00;3.17;;;28.20;1.00;;;;;;4999530;28;20203;-90
2023/06/07 09:42:19;;;;;;;3.72;2.60;;;28.20;1.00;;;;;;4999866;28;20225;-90
2023/06/07 09:44:53;;;;;;;4.25;2.65;;;28.40;1.00;;;;;;4998652;28;20202;-91
2023/06/07 09:47:30;;;;;;;5.05;2.55;;;28.50;1.00;;;;;;4998230;28;20217;-91
2023/06/07 09:50:15;;;;;;;6.43;2.72;;;28.50;1.00;;;;;;4997330;28;20199;-91
2023/06/07 09:53:02;;;;;;;3.50;2.50;;;28.50;1.00;;;;;;4997798;28;20298;-91
2023/06/07 09:55:37;;;;;;;5.93;2.60;;;28.50;1.00;;;;;;4980337;28;20213;-90
2023/06/07 09:58:32;;;;;;;5.55;2.30;;;28.60;1.00;;;;;;5002418;28;20652;-91
2023/06/07 10:01:25;;;;;;;6.70;4.70;;;28.80;1.00;;;;;;4997530;28;20206;-92
2023/06/07 10:03:54;;;;;;;3.72;2.78;;;29.00;1.00;;;;;;4995583;28;20226;-92
2023/06/07 10:06:27;;;;;;;3.15;2.33;;;29.10;1.00;;;;;;4998538;28;20346;-93
2023/06/07 10:12:02;;;;;;;4.97;2.38;;;29.10;1.00;;;;;;4996511;28;20213;-92
2023/06/07 10:14:32;;;;;;;5.90;2.60;;;29.10;1.00;;;;;;4991324;28;20735;-92
2023/06/07 10:17:05;;;;;;;4.95;2.30;;;29.20;1.00;;;;;;4997220;28;20199;-91
2023/06/07 10:19:37;;;;;;;9.20;3.05;;;29.10;1.00;;;;;;4977794;28;20204;-91
2023/06/07 10:22:11;;;;;;;2.95;2.45;;;28.90;1.00;;;;;;4996854;28;20191;-91
2023/06/07 10:24:47;;;;;;;5.78;2.30;;;28.80;1.00;;;;;;4996693;28;20221;-91
2023/06/07 10:27:17;;;;;;;5.50;2.67;;;28.80;1.00;;;;;;4989359;28;20202;-92
2023/06/07 10:29:54;;;;;;;4.20;2.40;;;28.80;1.00;;;;;;4996441;28;20723;-91
2023/06/07 10:32:26;;;;;;;3.67;2.50;;;28.70;1.00;;;;;;4996808;28;20221;-91
2023/06/07 10:34:55;;;;;;;3.53;2.70;;;28.40;1.00;;;;;;4995894;28;20675;-91
2023/06/07 10:37:23;;;;;;;4.68;2.60;;;28.10;1.00;;;;;;4997173;28;20237;-92
2023/06/07 10:39:50;;;;;;;4.68;2.80;;;28.00;1.00;;;;;;4997113;28;20253;-91
2023/06/07 10:42:18;;;;;;;3.65;2.50;;;28.00;1.00;;;;;;4996439;28;20562;-91
2023/06/07 10:44:46;;;;;;;3.70;2.80;;;28.10;1.00;;;;;;4996170;28;20215;-91
2023/06/07 10:47:34;;;;;;;3.65;2.80;;;28.30;1.00;;;;;;4996557;28;20253;-90
2023/06/07 10:50:01;;;;;;;4.80;3.03;;;28.50;1.00;;;;;;4993750;28;20249;-92
2023/06/07 10:52:28;;;;;;;4.90;2.65;;;29.00;1.00;;;;;;4996810;28;20242;-92
2023/06/07 10:54:55;;;;;;;4.68;2.63;;;29.30;1.00;;;;;;4996697;28;20195;-92
2023/06/07 10:57:36;;;;;;;4.35;2.70;;;29.60;1.00;;;;;;4995991;28;20250;-92
2023/06/07 11:00:28;;;;;;;2.92;2.65;;;30.00;1.00;;;;;;4996321;28;20226;-91
2023/06/07 11:03:33;;;;;;;5.07;2.55;;;30.30;1.00;;;;;;4995464;28;20286;-92
2023/06/07 11:06:10;;;;;;;4.30;2.60;;;30.10;1.00;;;;;;4986312;28;20629;-91
2023/06/07 11:08:38;;;;;;;5.82;2.75;;;29.90;1.00;;;;;;4994585;28;20195;-91
2023/06/07 11:11:27;;;;;;;2.72;2.45;;;29.80;1.00;;;;;;4996411;28;20199;-92
2023/06/07 11:14:13;;;;;;;4.72;2.60;;;29.80;1.00;;;;;;4994256;28;20202;-92
2023/06/07 11:16:42;;;;;;;9.07;3.30;;;29.60;1.00;;;;;;4996441;28;20195;-91
2023/06/07 11:19:12;;;;;;;3.55;2.88;;;29.60;1.00;;;;;;4996422;28;20191;-92
2023/06/07 11:22:04;;;;;;;3.30;2.58;;;29.60;1.00;;;;;;4996232;28;20253;-92
2023/06/07 11:24:38;;;;;;;4.85;2.90;;;29.70;1.00;;;;;;4996024;28;20257;-91
2023/06/07 11:27:14;;;;;;;3.78;2.80;;;30.00;1.00;;;;;;4995892;28;20235;-91
2023/06/07 11:29:42;;;;;;;11.80;3.72;;;30.70;1.00;;;;;;4995884;28;20576;-92
2023/06/07 11:32:11;;;;;;;3.70;2.70;;;31.30;1.00;;;;;;5002612;28;20202;-91
2023/06/07 11:34:39;;;;;;;4.15;2.80;;;31.80;1.00;;;;;;4996252;28;20226;-91
2023/06/07 11:37:16;;;;;;;3.65;2.70;;;32.30;1.00;;;;;;4995827;28;20203;-91
2023/06/07 11:39:44;;;;;;;6.28;2.60;;;32.70;1.00;;;;;;4991407;28;20198;-91
2023/06/07 11:42:11;;;;;;;4.03;2.40;;;32.90;1.00;;;;;;4993923;28;20743;-92
2023/06/07 11:44:38;;;;;;;4.50;2.55;;;33.10;1.00;;;;;;4994795;28;20242;-91
2023/06/07 11:47:07;;;;;;;5.20;2.55;;;33.20;1.00;;;;;;4994868;28;20210;-92
2023/06/07 11:49:38;;;;;;;4.72;2.80;;;33.00;1.00;;;;;;4995306;28;20198;-92
2023/06/07 11:52:06;;;;;;;3.08;2.60;;;32.70;1.00;;;;;;4995166;28;20187;-90
2023/06/07 11:54:34;;;;;;;3.85;2.60;;;32.70;1.00;;;;;;4995433;28;20265;-92
2023/06/07 11:57:02;;;;;;;4.53;2.53;;;32.90;1.00;;;;;;4994922;28;20715;-91
2023/06/07 11:59:29;;;;;;;3.63;2.88;;;33.20;1.00;;;;;;4995120;28;20211;-91
2023/06/07 12:01:58;;;;;;;3.40;2.63;;;33.40;1.00;;;;;;4994941;28;20708;-92
2023/06/07 12:04:25;;;;;;;3.30;2.47;;;33.40;1.00;;;;;;4993974;28;20270;-92
2023/06/07 12:06:54;;;;;;;3.88;2.40;;;33.30;1.00;;;;;;4994761;28;20203;-91
2023/06/07 12:09:22;;;;;;;4.05;2.55;;;33.20;1.00;;;;;;4994306;28;20265;-92
2023/06/07 12:11:49;;;;;;;3.78;2.45;;;33.10;1.00;;;;;;4994345;28;20572;-92
2023/06/07 12:14:34;;;;;;;3.03;2.60;;;33.10;1.00;;;;;;4990892;28;20316;-92
2023/06/07 12:17:02;;;;;;;10.02;3.22;;;33.20;1.00;;;;;;4992473;28;20253;-91
2023/06/07 12:19:29;;;;;;;3.28;2.42;;;33.40;1.00;;;;;;4987050;28;20206;-91
2023/06/07 12:22:07;;;;;;;3.28;2.60;;;33.30;1.00;;;;;;4994655;28;20191;-91
2023/06/07 12:24:39;;;;;;;4.15;2.40;;;33.30;1.00;;;;;;4994609;28;20190;-92
2023/06/07 12:27:07;;;;;;;4.85;2.70;;;33.20;1.00;;;;;;4994646;28;20254;-91
2023/06/07 12:29:34;;;;;;;4.82;2.60;;;32.90;1.00;;;;;;4994586;28;20214;-91
2023/06/07 12:32:03;;;;;;;4.28;2.50;;;32.70;1.00;;;;;;4989691;28;20624;-91
2023/06/07 12:34:31;;;;;;;6.70;2.55;;;32.30;1.00;;;;;;4987320;28;20218;-94
2023/06/07 12:36:58;;;;;;;3.58;2.63;;;32.00;1.00;;;;;;4994778;28;20234;-91
2023/06/07 12:39:32;;;;;;;3.25;2.50;;;31.90;1.00;;;;;;4983449;28;20281;-90
2023/06/07 12:41:59;;;;;;;3.63;2.90;;;31.80;1.00;;;;;;4976528;28;20203;-91
2023/06/07 12:44:26;;;;;;;5.50;2.45;;;31.80;1.00;;;;;;4976585;28;20195;-90
2023/06/07 12:46:54;;;;;;;3.08;2.55;;;31.70;1.00;;;;;;4988422;28;20210;-91
2023/06/07 12:49:21;;;;;;;3.97;2.58;;;31.60;1.00;;;;;;4979091;28;20203;-92
2023/06/07 12:51:48;;;;;;;6.75;2.60;;;31.60;1.00;;;;;;4994264;28;20198;-91
2023/06/07 12:54:15;;;;;;;3.70;2.63;;;31.70;1.00;;;;;;4993920;28;20269;-92
2023/06/07 12:56:45;;;;;;;3.53;2.33;;;32.00;1.00;;;;;;4994650;28;20191;-91
2023/06/07 12:59:12;;;;;;;5.05;2.50;;;32.40;1.00;;;;;;4996742;28;20210;-91
2023/06/07 13:01:39;;;;;;;4.68;2.80;;;32.70;1.00;;;;;;4997897;28;20205;-91
2023/06/07 13:04:06;;;;;;;6.07;2.47;;;33.10;1.00;;;;;;4998297;28;20234;-92
2023/06/07 13:06:33;;;;;;;3.13;2.55;;;33.30;1.00;;;;;;4997974;28;20253;-92
2023/06/07 13:09:05;;;;;;;5.47;2.53;;;33.30;1.00;;;;;;4997756;28;20199;-91
2023/06/07 13:11:33;;;;;;;4.40;2.53;;;33.20;1.00;;;;;;4997769;28;20209;-91
2023/06/07 13:14:02;;;;;;;5.80;2.40;;;33.20;1.00;;;;;;4998043;28;20246;-91
2023/06/07 13:16:29;;;;;;;2.75;2.45;;;32.90;1.00;;;;;;4998154;28;20636;-92
2023/06/07 13:18:57;;;;;;;5.95;2.40;;;32.70;1.00;;;;;;4998413;28;20281;-92
2023/06/07 13:21:24;;;;;;;4.03;2.85;;;32.60;1.00;;;;;;4997258;28;20234;-92
2023/06/07 13:23:51;;;;;;;3.88;2.58;;;32.70;1.00;;;;;;4997567;28;20195;-92
2023/06/07 13:26:18;;;;;;;5.10;2.60;;;32.70;1.00;;;;;;4997643;28;20226;-92
2023/06/07 13:28:46;;;;;;;4.68;2.40;;;32.80;1.00;;;;;;4997824;28;20250;-92
2023/06/07 13:31:15;;;;;;;4.18;2.42;;;32.90;1.00;;;;;;5003352;28;20209;-91
2023/06/07 13:33:43;;;;;;;3.63;2.40;;;32.80;1.00;;;;;;4995851;28;20261;-91
2023/06/07 13:36:12;;;;;;;3.78;2.55;;;32.60;1.00;;;;;;4978621;28;20231;-92
2023/06/07 13:38:39;;;;;;;3.90;2.90;;;32.30;1.00;;;;;;4978650;28;20231;-91
2023/06/07 13:41:07;;;;;;;3.80;2.63;;;32.20;1.00;;;;;;4978509;28;20200;-91
2023/06/07 13:43:34;;;;;;;5.50;2.85;;;32.10;1.00;;;;;;4979988;28;20211;-92
2023/06/07 13:46:02;;;;;;;3.60;2.55;;;32.10;1.00;;;;;;4997379;28;20249;-91
2023/06/07 13:48:31;;;;;;;4.05;2.63;;;32.00;1.00;;;;;;4997326;28;20202;-92
2023/06/07 13:50:58;;;;;;;3.97;2.75;;;31.80;1.00;;;;;;4988589;28;20219;-91
2023/06/07 13:53:26;;;;;;;4.68;2.97;;;31.60;1.00;;;;;;4986431;28;20198;-91
2023/06/07 13:55:53;;;;;;;4.05;2.80;;;31.50;1.00;;;;;;4997186;28;20223;-90
2023/06/07 13:58:20;;;;;;;3.28;2.50;;;31.50;1.00;;;;;;4997144;28;20250;-91
2023/06/07 14:00:47;;;;;;;3.13;2.45;;;31.50;1.00;;;;;;4983184;28;20274;-91
2023/06/07 14:03:14;;;;;;;5.00;2.50;;;31.50;1.00;;;;;;4997241;28;20198;-91
2023/06/07 14:05:43;;;;;;;3.90;2.65;;;31.60;1.00;;;;;;4995876;28;20600;-91
2023/06/07 14:08:10;;;;;;;4.00;2.60;;;31.50;1.00;;;;;;4997159;28;20226;-91
2023/06/07 14:10:37;;;;;;;5.55;3.00;;;31.60;1.00;;;;;;4996716;28;20254;-90
2023/06/07 14:13:04;;;;;;;3.22;2.70;;;31.50;1.00;;;;;;4997634;28;20206;-92
2023/06/07 14:15:31;;;;;;;3.65;2.47;;;31.40;1.00;;;;;;4996831;28;20688;-90
2023/06/07 14:17:58;;;;;;;4.00;2.80;;;31.20;1.00;;;;;;4996981;28;20607;-91
2023/06/07 14:20:25;;;;;;;3.25;2.90;;;31.00;1.00;;;;;;4996571;28;20665;-91
2023/06/07 14:22:54;;;;;;;4.45;2.60;;;31.10;1.00;;;;;;4996989;28;20298;-91
2023/06/07 14:25:20;;;;;;;3.75;2.70;;;31.30;1.00;;;;;;4996849;28;20215;-92
2023/06/07 14:27:48;;;;;;;3.35;2.28;;;31.50;1.00;;;;;;4995125;28;20198;-91
2023/06/07 14:30:16;;;;;;;4.45;2.50;;;31.70;1.00;;;;;;4995759;28;20212;-91
2023/06/07 14:32:43;;;;;;;4.30;2.75;;;32.00;1.00;;;;;;4996304;28;20211;-91
2023/06/07 14:35:10;;;;;;;4.50;2.65;;;32.20;1.00;;;;;;4995970;28;20211;-93
2023/06/07 14:37:37;;;;;;;4.70;2.65;;;32.40;1.00;;;;;;4997152;28;20203;-93
2023/06/07 14:40:07;;;;;;;4.38;2.58;;;32.60;1.00;;;;;;4996952;28;20203;-93
2023/06/07 14:42:34;;;;;;;6.70;2.70;;;32.60;1.00;;;;;;4995279;28;20194;-94
2023/06/07 14:45:01;;;;;;;2.90;2.65;;;32.80;1.00;;;;;;4994987;28;20195;-93
2023/06/07 14:47:28;;;;;;;5.05;2.63;;;32.80;1.00;;;;;;4995550;28;20206;-94
2023/06/07 14:49:55;;;;;;;3.65;2.45;;;32.80;1.00;;;;;;4991162;28;20207;-94
2023/06/07 14:52:22;;;;;;;3.25;2.50;;;32.70;1.00;;;;;;4995413;28;20204;-93
2023/06/07 14:54:49;;;;;;;5.72;2.80;;;32.80;1.00;;;;;;4992229;28;20215;-92
2023/06/07 14:57:18;;;;;;;3.92;2.85;;;32.60;1.00;;;;;;4990847;28;20205;-95
2023/06/07 14:59:45;;;;;;;3.25;2.92;;;32.50;1.00;;;;;;4994278;28;20199;-92
2023/06/07 15:02:15;;;;;;;3.55;2.60;;;32.30;1.00;;;;;;4996363;28;20206;-93
2023/06/07 15:04:42;;;;;;;8.43;2.78;;;32.10;1.00;;;;;;4993556;28;20293;-92
2023/06/07 15:07:10;;;;;;;4.60;2.50;;;31.80;1.00;;;;;;4996784;28;20253;-92
2023/06/07 15:09:40;;;;;;;5.38;3.03;;;31.40;1.00;;;;;;4995963;28;20195;-92
2023/06/07 15:12:10;;;;;;;3.17;2.83;;;31.10;1.00;;;;;;4996178;28;20191;-93
2023/06/07 15:14:41;;;;;;;4.97;2.47;;;31.00;1.00;;;;;;4993976;28;20218;-93
2023/06/07 15:17:11;;;;;;;3.20;2.63;;;30.90;1.00;;;;;;4994589;28;20747;-92
2023/06/07 15:19:38;;;;;;;3.97;2.42;;;30.80;1.00;;;;;;4995700;28;20219;-93
2023/06/07 15:22:06;;;;;;;3.80;2.63;;;30.80;1.00;;;;;;4995796;28;20191;-93
2023/06/07 15:24:33;;;;;;;3.28;2.67;;;30.90;1.00;;;;;;4995679;28;20226;-91
2023/06/07 15:27:00;;;;;;;3.58;3.10;;;31.00;1.00;;;;;;4995806;28;20199;-92
2023/06/07 15:29:29;;;;;;;5.53;3.03;;;31.00;1.00;;;;;;4994294;28;20195;-92
2023/06/07 15:31:58;;;;;;;3.80;2.75;;;30.90;1.00;;;;;;4978397;28;20885;-93
2023/06/07 15:34:28;;;;;;;8.00;3.05;;;30.70;1.00;;;;;;4995073;28;20253;-93
2023/06/07 15:36:55;;;;;;;3.83;2.85;;;30.70;1.00;;;;;;4976087;28;20283;-94
2023/06/07 15:39:22;;;;;;;5.10;2.70;;;30.60;1.00;;;;;;4995739;28;20254;-93
2023/06/07 15:41:51;;;;;;;6.68;2.97;;;30.50;1.00;;;;;;4994767;28;20191;-93
2023/06/07 15:44:19;;;;;;;3.67;2.83;;;30.40;1.00;;;;;;4994436;28;20207;-94
2023/06/07 15:46:48;;;;;;;3.08;2.50;;;30.50;1.00;;;;;;4994429;28;20258;-91
2023/06/07 15:49:18;;;;;;;3.58;2.60;;;30.50;1.00;;;;;;4994164;28;20226;-92
2023/06/07 15:51:45;;;;;;;3.80;2.60;;;30.60;1.00;;;;;;4992885;28;20246;-91
2023/06/07 15:54:12;;;;;;;3.28;2.65;;;30.60;1.00;;;;;;4992639;28;20624;-92
2023/06/07 15:56:42;;;;;;;6.57;2.70;;;30.50;1.00;;;;;;4992888;28;20223;-92
2023/06/07 15:59:09;;;;;;;5.07;2.80;;;30.60;1.00;;;;;;4992913;28;20198;-92
2023/06/07 16:01:37;;;;;;;5.28;3.03;;;30.60;1.00;;;;;;4993478;28;20198;-93
2023/06/07 16:04:04;;;;;;;5.90;2.78;;;30.70;1.00;;;;;;4993792;28;20258;-94
2023/06/07 16:06:32;;;;;;;5.97;2.70;;;30.70;1.00;;;;;;4993466;28;20199;-93
2023/06/07 16:09:02;;;;;;;4.38;2.78;;;30.70;1.00;;;;;;4994471;28;20199;-93
2023/06/07 16:11:29;;;;;;;3.92;2.90;;;30.70;1.00;;;;;;4994579;28;20202;-93
2023/06/07 16:13:56;;;;;;;2.80;2.60;;;30.60;1.00;;;;;;4994634;28;20281;-92
2023/06/07 16:16:23;;;;;;;4.05;2.75;;;30.60;1.00;;;;;;4994440;28;20211;-92
2023/06/07 16:18:50;;;;;;;3.83;2.80;;;30.50;1.00;;;;;;4993254;28;20242;-94
2023/06/07 16:21:17;;;;;;;3.70;2.78;;;30.30;1.00;;;;;;4994331;28;20199;-93
2023/06/07 16:23:46;;;;;;;4.35;2.60;;;30.20;1.00;;;;;;4994467;28;20202;-93
2023/06/07 16:26:12;;;;;;;3.13;2.78;;;30.10;1.00;;;;;;4994365;28;20231;-93
2023/06/07 16:28:39;;;;;;;6.72;3.30;;;30.00;1.00;;;;;;4994411;28;20199;-93
2023/06/07 16:31:06;;;;;;;4.13;3.25;;;30.00;1.00;;;;;;4994481;28;20191;-93
2023/06/07 16:33:33;;;;;;;4.72;2.90;;;30.00;1.00;;;;;;4993266;28;20199;-92
2023/06/07 16:36:00;;;;;;;5.05;2.60;;;29.90;1.00;;;;;;4994189;28;20269;-92
2023/06/07 16:38:27;;;;;;;7.53;2.88;;;29.90;1.00;;;;;;4994101;28;20194;-92
2023/06/07 16:40:55;;;;;;;13.77;4.25;;;29.80;1.00;;;;;;4994497;28;20203;-93
2023/06/07 16:43:22;;;;;;;6.47;3.00;;;29.60;1.00;;;;;;4994422;28;20656;-93
2023/06/07 16:45:50;;;;;;;6.25;3.35;;;29.50;1.00;;;;;;4994316;28;20195;-93
2023/06/07 16:48:17;;;;;;;6.30;3.17;;;29.40;1.00;;;;;;4994236;28;20198;-93
2023/06/07 16:50:44;;;;;;;5.85;2.95;;;29.40;1.00;;;;;;4994323;28;20195;-94
2023/06/07 16:53:11;;;;;;;6.30;2.92;;;29.40;1.00;;;;;;4994430;28;20668;-92
2023/06/07 16:55:38;;;;;;;4.65;3.00;;;29.40;1.00;;;;;;4994147;28;20771;-92
2023/06/07 16:58:07;;;;;;;4.93;2.80;;;29.40;1.00;;;;;;4994376;28;20199;-93
2023/06/07 17:00:34;;;;;;;4.53;2.90;;;29.40;1.00;;;;;;4994095;28;20273;-93
2023/06/07 17:03:01;;;;;;;2.90;2.60;;;29.50;1.00;;;;;;4994012;28;20195;-93
2023/06/07 17:05:28;;;;;;;6.32;2.88;;;29.50;1.00;;;;;;4994337;28;20246;-93
2023/06/07 17:07:56;;;;;;;5.28;2.97;;;29.60;1.00;;;;;;4994295;28;20202;-94
2023/06/07 17:10:23;;;;;;;3.47;2.63;;;29.70;1.00;;;;;;4994375;28;20695;-94
2023/06/07 17:12:50;;;;;;;5.78;2.90;;;29.70;1.00;;;;;;4993540;28;20250;-93
2023/06/07 17:15:18;;;;;;;5.05;3.00;;;29.70;1.00;;;;;;4993374;28;20210;-95
2023/06/07 17:17:45;;;;;;;9.85;2.90;;;29.70;1.00;;;;;;4992751;28;20257;-95
2023/06/07 17:20:13;;;;;;;3.78;2.97;;;29.80;1.00;;;;;;4993955;28;20249;-95
2023/06/07 17:22:40;;;;;;;4.18;2.90;;;29.70;1.00;;;;;;4993670;28;20627;-93
2023/06/07 17:25:07;;;;;;;3.88;2.63;;;29.80;1.00;;;;;;4991318;28;20229;-93
2023/06/07 17:27:34;;;;;;;4.57;2.70;;;29.70;1.00;;;;;;4993476;28;20199;-93
2023/06/07 17:30:01;;;;;;;3.67;2.97;;;29.70;1.00;;;;;;4985718;28;21356;-93
2023/06/07 17:32:30;;;;;;;3.40;2.80;;;29.80;1.00;;;;;;4991275;28;20298;-95
2023/06/07 17:34:57;;;;;;;4.95;2.58;;;29.90;1.00;;;;;;4990986;28;20220;-94
2023/06/07 17:37:24;;;;;;;3.47;2.67;;;29.90;1.00;;;;;;4992833;28;20665;-94
2023/06/07 17:39:51;;;;;;;5.80;2.95;;;30.00;1.00;;;;;;4989716;28;20645;-93
2023/06/07 17:42:20;;;;;;;3.63;3.05;;;30.00;1.00;;;;;;4990704;28;20195;-93
2023/06/07 17:44:47;;;;;;;3.38;2.80;;;30.00;1.00;;;;;;4994899;28;20199;-92
2023/06/07 17:47:14;;;;;;;4.50;2.90;;;30.00;1.00;;;;;;4996055;28;20203;-93
2023/06/07 17:49:43;;;;;;;6.25;3.15;;;30.10;1.00;;;;;;4994726;28;20198;-93
2023/06/07 17:52:10;;;;;;;3.65;2.95;;;30.00;1.00;;;;;;4996536;28;20247;-93
2023/06/07 17:54:37;;;;;;;3.70;2.63;;;30.10;1.00;;;;;;4995318;28;20202;-93
2023/06/07 17:57:05;;;;;;;4.18;2.90;;;30.00;1.00;;;;;;4997011;28;20211;-93
2023/06/07 17:59:31;;;;;;;4.40;3.00;;;29.90;1.00;;;;;;4995384;28;20653;-93
2023/06/07 18:01:58;;;;;;;7.38;3.08;;;29.80;1.00;;;;;;4995561;28;20492;-93
2023/06/07 18:04:25;;;;;;;5.50;2.90;;;29.70;1.00;;;;;;4992380;28;20622;-93
2023/06/07 18:06:54;;;;;;;3.97;2.65;;;29.40;1.00;;;;;;4995816;28;20246;-94
2023/06/07 18:09:21;;;;;;;6.03;3.20;;;28.90;1.00;;;;;;4996803;28;20265;-94
2023/06/07 18:11:48;;;;;;;4.00;2.97;;;28.10;1.00;;;;;;4995972;28;20653;-95
2023/06/07 18:14:15;;;;;;;5.50;3.10;;;27.30;1.00;;;;;;4996943;28;20560;-95
2023/06/07 18:16:41;;;;;;;4.68;2.97;;;26.60;1.00;;;;;;4995786;28;20265;-94
2023/06/07 18:19:08;;;;;;;4.75;3.00;;;26.10;1.00;;;;;;4996614;28;20254;-91
2023/06/07 18:21:36;;;;;;;4.22;2.83;;;25.70;1.00;;;;;;4996629;28;20203;-93
2023/06/07 18:24:05;;;;;;;5.03;3.20;;;25.40;1.00;;;;;;4996459;28;20194;-92
2023/06/07 18:26:32;;;;;;;5.40;2.83;;;25.10;1.00;;;;;;4996030;28;20223;-92
2023/06/07 18:28:59;;;;;;;16.23;3.42;;;24.90;1.00;;;;;;4996581;28;20199;-92